Glemsford, United Kingdom
Current Conditions -  °F | °C
As of 12:50 AM on Saturday 29 Nov 2014 (Local Time) from EGUW Reporting Station
Broken Clouds Broken Clouds  
Wind Chill: 10°   Ceiling: 15000
Heat Index: 10°   Visibility: 6mi
Dew Point:   Wind: 10mph
Humidity: 94%   Direction: 110°ESE
Pressure: 29.77"   Gusts: NA
Location:  52.1°N, 0.67°E
Report Text: EGUW 290050Z AUTO 11009KT 9999 FEW090/// BKN150/// 10/09 Q1008
Loading
Personal Weather Stations






























Interactive Weather Map New forecast layout! Learn more

10-Day Weather Forecast

Advertisements
Track Severe Weather on mobile